Main page
METAR-TAF:

METAR-TAF

Airports :

Balıkesir Airport

Balikesir, Turkey

latitude: 39-37N, longitude: 027-55E, elevation: 101 m

Current weather observation

The report was made 36 minutes ago, at 20:50 UTC
Wind 2 kt from variable directions
Temperature 2°C
Humidity 87%
Pressure 1020 hPa
Visibility: 6000 m

METAR: LTBF 182050Z VRB02KT 6000 NSC 02/00 Q1020 NOSIG

Time: 00:26 (21:26 UTC)

Forecast

The report was made 1 hour and 46 minutes ago, at 19:40 UTC
Forecast valid from 18 at 21 UTC to 19 at 06 UTC
Wind 2 kt from variable directions
Visibility: 6000 m
Becoming
from 18 at 23 UTC to 19 at 02 UTC
Visibility: 2000 m
Scattered clouds at a height of 1000 ft
mist
Probability 40%
from 19 at 02 UTC to 19 at 06 UTC
Visibility: 0400 m
Broken clouds at a height of 400 ft
fog

TAF: LTBF 181940Z 1821/1906 VRB02KT 6000 NSC BECMG 1823/1902 2000 BR SCT010 PROB40 1902/1906 0400 FG BKN004

Weather observations and forecasts of more than 4000 airports (METAR and TAF reports).

The available stations are represented by yellow and red dots on the map.

Hover mouse over dot to see the name of the station.

Then click to see weather observations and forecasts.

To change the map : click on the green buttons with a black cross to zoom in, on the green button with a dash to zoom out, or on the green arrows for adjacent maps.


METAR-TAF: